createdAt,value
2023-01-12T00:02:22.770Z,55.60
2023-01-12T00:04:50.485Z,55.88
2023-01-12T00:07:18.867Z,55.84
2023-01-12T00:09:49.505Z,55.84
2023-01-12T00:12:17.321Z,55.64
2023-01-12T00:14:45.087Z,55.71
2023-01-12T00:17:16.681Z,55.96
2023-01-12T00:19:44.364Z,55.79
2023-01-12T00:22:12.588Z,55.92
2023-01-12T00:24:49.614Z,55.89
2023-01-12T00:27:20.592Z,55.96
2023-01-12T00:29:50.205Z,55.79
2023-01-12T00:32:21.524Z,55.61
2023-01-12T00:34:49.166Z,55.50
2023-01-12T00:37:35.052Z,55.77
2023-01-12T00:40:03.336Z,55.50
2023-01-12T00:42:49.975Z,55.42
2023-01-12T00:45:24.406Z,55.44
2023-01-12T00:47:53.652Z,55.51
2023-01-12T00:50:22.976Z,55.28
2023-01-12T00:52:50.694Z,55.35
2023-01-12T00:55:18.552Z,55.15
2023-01-12T00:57:46.248Z,55.17
2023-01-12T01:00:15.247Z,55.05
2023-01-12T01:02:43.526Z,55.04
2023-01-12T01:05:11.244Z,54.72
2023-01-12T01:07:39.088Z,54.98
2023-01-12T01:10:07.644Z,54.74
2023-01-12T01:12:35.317Z,54.72
2023-01-12T01:15:03.531Z,54.45
2023-01-12T01:17:31.896Z,54.58
2023-01-12T01:19:59.739Z,54.65
2023-01-12T01:22:27.781Z,54.38
2023-01-12T01:24:55.668Z,54.38
2023-01-12T01:27:23.405Z,54.31
2023-01-12T01:29:51.194Z,54.26
2023-01-12T01:32:19.510Z,54.25
2023-01-12T01:34:48.107Z,54.22
2023-01-12T01:37:15.765Z,54.36
2023-01-12T01:39:43.550Z,54.33
2023-01-12T01:42:28.017Z,54.15
2023-01-12T01:44:59.317Z,54.11
2023-01-12T01:47:40.732Z,54.04
2023-01-12T01:50:24.718Z,54.60
2023-01-12T01:53:11.205Z,54.76
2023-01-12T01:55:54.637Z,54.11
2023-01-12T01:58:38.700Z,54.12
2023-01-12T02:01:07.677Z,54.35
2023-01-12T02:03:37.388Z,54.13
2023-01-12T02:06:07.202Z,54.01
2023-01-12T02:08:59.651Z,53.77
2023-01-12T02:11:46.530Z,54.13
2023-01-12T02:14:32.958Z,53.77
2023-01-12T02:17:40.554Z,53.69
2023-01-12T02:20:41.488Z,53.86
2023-01-12T02:23:53.331Z,53.95
2023-01-12T02:26:48.017Z,53.82
2023-01-12T02:29:47.263Z,53.77
2023-01-12T02:32:30.404Z,53.69
2023-01-12T02:35:35.418Z,53.39
2023-01-12T02:38:35.785Z,53.62
2023-01-12T02:41:40.954Z,53.65
2023-01-12T02:44:23.116Z,53.56
2023-01-12T02:46:52.071Z,53.82
2023-01-12T02:49:24.551Z,53.59
2023-01-12T02:52:05.206Z,53.61
2023-01-12T02:54:35.725Z,53.43
2023-01-12T02:57:08.219Z,53.54
2023-01-12T02:59:41.360Z,53.50
2023-01-12T03:02:14.970Z,53.38
2023-01-12T03:04:42.888Z,53.59
2023-01-12T03:07:35.671Z,53.20
2023-01-12T03:10:25.971Z,53.45
2023-01-12T03:12:56.785Z,53.45
2023-01-12T03:15:26.344Z,53.61
2023-01-12T03:18:03.637Z,53.26
2023-01-12T03:20:34.700Z,53.23
2023-01-12T03:23:13.847Z,53.21
2023-01-12T03:25:44.984Z,53.26
2023-01-12T03:28:16.871Z,53.12
2023-01-12T03:30:56.774Z,53.11
2023-01-12T03:33:25.875Z,53.10
2023-01-12T03:36:19.848Z,53.06
2023-01-12T03:39:17.224Z,52.86
2023-01-12T03:42:04.572Z,53.13
2023-01-12T03:44:50.733Z,53.17
2023-01-12T03:47:24.198Z,53.24
2023-01-12T03:50:05.900Z,53.01
2023-01-12T03:52:36.889Z,53.25
2023-01-12T03:55:09.402Z,53.04
2023-01-12T03:57:39.526Z,53.15
2023-01-12T04:00:12.243Z,52.89
2023-01-12T04:02:46.725Z,52.89
2023-01-12T04:05:16.239Z,53.10
2023-01-12T04:07:43.836Z,52.90
2023-01-12T04:10:12.007Z,52.88
2023-01-12T04:12:39.992Z,52.94
2023-01-12T04:15:08.189Z,52.76
2023-01-12T04:17:35.814Z,52.50
2023-01-12T04:20:04.694Z,52.72
2023-01-12T04:22:44.544Z,52.82
2023-01-12T04:25:17.358Z,52.75
2023-01-12T04:27:52.040Z,52.64
2023-01-12T04:30:23.546Z,52.61
2023-01-12T04:32:51.549Z,52.75
2023-01-12T04:35:19.888Z,52.78
2023-01-12T04:37:48.145Z,52.39
2023-01-12T04:40:17.063Z,52.55
2023-01-12T04:43:08.681Z,52.51
2023-01-12T04:45:40.609Z,52.63
2023-01-12T04:48:11.963Z,52.73
2023-01-12T04:50:44.290Z,52.52
2023-01-12T04:53:13.757Z,52.65
2023-01-12T04:55:43.363Z,52.45
2023-01-12T04:58:10.996Z,52.66
2023-01-12T05:00:38.714Z,52.63
2023-01-12T05:03:06.418Z,52.62
2023-01-12T05:05:35.823Z,52.77
2023-01-12T05:08:23.920Z,52.77
2023-01-12T05:10:54.838Z,52.80
2023-01-12T05:13:24.350Z,52.92
2023-01-12T05:15:52.062Z,53.07
2023-01-12T05:18:20.153Z,53.01
2023-01-12T05:20:48.042Z,52.93
2023-01-12T05:23:15.781Z,53.04
2023-01-12T05:25:43.461Z,53.03
2023-01-12T05:28:13.081Z,52.99
2023-01-12T05:30:40.767Z,53.24
2023-01-12T05:33:15.777Z,53.23
2023-01-12T05:35:43.448Z,53.39
2023-01-12T05:38:11.360Z,53.47
2023-01-12T05:40:39.068Z,53.47
2023-01-12T05:43:25.725Z,53.36
2023-01-12T05:45:53.406Z,53.46
2023-01-12T05:48:21.497Z,53.59
2023-01-12T05:50:49.113Z,53.59
2023-01-12T05:53:16.874Z,53.46
2023-01-12T05:55:44.484Z,53.53
2023-01-12T05:58:12.277Z,53.38
2023-01-12T06:00:39.941Z,53.51
2023-01-12T06:03:07.676Z,53.52
2023-01-12T06:05:35.369Z,53.50
2023-01-12T06:08:03.331Z,53.38
2023-01-12T06:10:32.805Z,53.38
2023-01-12T06:13:19.690Z,53.03
2023-01-12T06:15:47.359Z,53.26
2023-01-12T06:18:15.030Z,53.30
2023-01-12T06:20:42.666Z,53.31
2023-01-12T06:23:10.300Z,52.94
2023-01-12T06:25:37.948Z,52.89
2023-01-12T06:28:06.368Z,52.84
2023-01-12T06:30:34.043Z,52.98
2023-01-12T06:33:05.756Z,53.06
2023-01-12T06:35:54.514Z,52.81
2023-01-12T06:38:43.271Z,52.76
2023-01-12T06:41:49.864Z,52.71
2023-01-12T06:44:17.575Z,52.80
2023-01-12T06:46:45.617Z,52.60
2023-01-12T06:49:13.494Z,52.45
2023-01-12T06:51:41.095Z,52.69
2023-01-12T06:54:09.265Z,52.42
2023-01-12T06:56:36.960Z,52.57
2023-01-12T06:59:04.667Z,52.53
2023-01-12T07:01:32.493Z,52.35
2023-01-12T07:04:00.633Z,52.49
2023-01-12T07:06:28.369Z,52.39
2023-01-12T07:08:58.686Z,52.24
2023-01-12T07:11:26.383Z,52.42
2023-01-12T07:13:55.747Z,52.36
2023-01-12T07:16:23.795Z,52.23
2023-01-12T07:18:51.646Z,52.18
2023-01-12T07:21:19.703Z,51.96
2023-01-12T07:23:47.454Z,52.18
2023-01-12T07:26:15.179Z,52.20
2023-01-12T07:28:43.174Z,52.00
2023-01-12T07:31:11.345Z,52.21
2023-01-12T07:33:39.169Z,51.88
2023-01-12T07:36:07.317Z,52.02
2023-01-12T07:38:35.211Z,52.00
2023-01-12T07:41:04.857Z,51.84
2023-01-12T07:43:33.580Z,51.87
2023-01-12T07:46:01.530Z,51.83
2023-01-12T07:48:30.626Z,51.75
2023-01-12T07:50:59.421Z,51.81
2023-01-12T07:53:27.113Z,51.63
2023-01-12T07:55:54.904Z,51.82
2023-01-12T07:58:22.702Z,51.85
2023-01-12T08:00:50.750Z,51.85
2023-01-12T08:03:18.589Z,51.72
2023-01-12T08:05:46.994Z,51.83
2023-01-12T08:08:14.860Z,51.75
2023-01-12T08:10:43.644Z,51.81
2023-01-12T08:13:11.319Z,51.80
2023-01-12T08:15:47.774Z,51.64
2023-01-12T08:18:31.978Z,51.57
2023-01-12T08:21:04.590Z,51.69
2023-01-12T08:23:41.825Z,51.75
2023-01-12T08:26:16.587Z,51.69
2023-01-12T08:29:12.787Z,51.63
2023-01-12T08:31:41.223Z,51.69
2023-01-12T08:34:09.837Z,51.86
2023-01-12T08:36:39.863Z,51.70
2023-01-12T08:39:07.800Z,51.74
2023-01-12T08:41:37.525Z,51.72
2023-01-12T08:44:11.131Z,51.75
2023-01-12T08:46:49.443Z,51.81
2023-01-12T08:49:24.195Z,51.86
2023-01-12T08:51:52.680Z,51.86
2023-01-12T08:54:22.370Z,51.86
2023-01-12T08:56:50.447Z,51.69
2023-01-12T08:59:19.436Z,51.89
2023-01-12T09:01:47.996Z,51.91
2023-01-12T09:04:16.379Z,51.96
2023-01-12T09:06:45.511Z,51.86
2023-01-12T09:09:19.964Z,51.79
2023-01-12T09:11:49.628Z,51.95
2023-01-12T09:14:17.537Z,52.03
2023-01-12T09:16:45.565Z,51.87
2023-01-12T09:19:13.709Z,51.95
2023-01-12T09:21:42.093Z,51.90
2023-01-12T09:24:11.766Z,52.09
2023-01-12T09:26:45.988Z,52.07
2023-01-12T09:29:14.924Z,52.09
2023-01-12T09:31:44.820Z,52.12
2023-01-12T09:34:15.441Z,52.16
2023-01-12T09:36:44.522Z,52.12
2023-01-12T09:39:26.988Z,52.08
2023-01-12T09:42:17.574Z,51.97
2023-01-12T09:45:09.742Z,52.21
2023-01-12T09:47:56.286Z,52.23
2023-01-12T09:50:48.256Z,52.09
2023-01-12T09:53:28.541Z,52.21
2023-01-12T09:56:29.003Z,51.97
2023-01-12T09:59:08.447Z,52.13
2023-01-12T10:01:37.140Z,52.17
2023-01-12T10:04:06.494Z,52.05
2023-01-12T10:06:35.885Z,51.90
2023-01-12T10:09:13.595Z,51.83
2023-01-12T10:12:23.938Z,51.83
2023-01-12T10:15:14.578Z,51.81
2023-01-12T10:17:55.831Z,51.76
2023-01-12T10:20:41.737Z,51.46
2023-01-12T10:23:09.630Z,51.82
2023-01-12T10:25:50.889Z,51.44
2023-01-12T10:28:27.302Z,51.42
2023-01-12T10:30:57.394Z,51.59
2023-01-12T10:33:33.737Z,51.58
2023-01-12T10:36:26.300Z,51.38
2023-01-12T10:39:05.315Z,51.44
2023-01-12T10:41:36.045Z,51.64
2023-01-12T10:44:21.251Z,51.39
2023-01-12T10:47:10.802Z,51.27
2023-01-12T10:49:39.428Z,51.17
2023-01-12T10:52:44.503Z,51.04
2023-01-12T10:55:29.476Z,51.10
2023-01-12T10:58:06.668Z,51.42
2023-01-12T11:00:36.274Z,51.23
2023-01-12T11:03:24.062Z,51.03
2023-01-12T11:05:52.004Z,51.18
2023-01-12T11:08:29.354Z,50.90
2023-01-12T11:10:57.180Z,50.96
2023-01-12T11:13:37.757Z,50.76
2023-01-12T11:16:26.188Z,50.94
2023-01-12T11:19:17.414Z,51.03
2023-01-12T11:21:54.723Z,50.87
2023-01-12T11:24:42.206Z,50.90
2023-01-12T11:27:43.184Z,50.71
2023-01-12T11:30:49.723Z,50.71
2023-01-12T11:33:34.067Z,50.87
2023-01-12T11:36:15.833Z,51.26
2023-01-12T11:39:08.525Z,50.99
2023-01-12T11:42:18.722Z,50.90
2023-01-12T11:45:28.946Z,51.09
2023-01-12T11:48:07.430Z,51.36
2023-01-12T11:50:39.576Z,51.06
2023-01-12T11:53:20.920Z,51.14
2023-01-12T11:56:43.022Z,51.59
2023-01-12T11:59:32.698Z,51.67
2023-01-12T12:02:34.770Z,51.45
2023-01-12T12:05:30.303Z,51.13
2023-01-12T12:08:35.877Z,50.69
2023-01-12T12:11:51.040Z,50.60
2023-01-12T12:14:39.171Z,50.94
2023-01-12T12:17:33.169Z,50.59
2023-01-12T12:20:30.658Z,50.48
2023-01-12T12:24:13.501Z,50.36
2023-01-12T12:26:55.714Z,50.48
2023-01-12T12:30:01.162Z,50.41
2023-01-12T12:33:32.308Z,50.34
2023-01-12T12:36:48.215Z,50.42
2023-01-12T12:39:48.099Z,49.94
2023-01-12T12:43:04.137Z,50.19
2023-01-12T12:45:43.003Z,50.38
2023-01-12T12:48:29.750Z,50.29
2023-01-12T12:51:11.536Z,50.17
2023-01-12T12:53:46.265Z,50.33
2023-01-12T12:56:22.267Z,50.27
2023-01-12T12:58:56.545Z,50.51
2023-01-12T13:01:31.728Z,50.47
2023-01-12T13:04:05.847Z,50.58
2023-01-12T13:06:48.421Z,50.03
2023-01-12T13:09:19.055Z,50.26
2023-01-12T13:11:59.054Z,50.10
2023-01-12T13:14:38.715Z,49.75
2023-01-12T13:17:21.648Z,49.65
2023-01-12T13:20:08.234Z,49.91
2023-01-12T13:22:41.873Z,49.83
2023-01-12T13:25:24.470Z,49.70
2023-01-12T13:28:01.210Z,49.80
2023-01-12T13:30:28.807Z,49.87
2023-01-12T13:33:27.350Z,49.59
2023-01-12T13:36:30.708Z,49.56
2023-01-12T13:39:17.396Z,50.04
2023-01-12T13:42:39.843Z,49.87
2023-01-12T13:45:27.990Z,49.95
2023-01-12T13:48:19.045Z,49.97
2023-01-12T13:51:39.758Z,49.65
2023-01-12T13:54:28.877Z,50.03
2023-01-12T13:57:22.096Z,49.94
2023-01-12T14:00:22.026Z,50.07
2023-01-12T14:03:54.156Z,50.22
2023-01-12T14:06:24.796Z,50.95
2023-01-12T14:09:20.010Z,51.03
2023-01-12T14:12:04.291Z,50.96
2023-01-12T14:15:23.551Z,51.04
2023-01-12T14:17:57.618Z,51.32
2023-01-12T14:20:31.233Z,51.20
2023-01-12T14:23:23.216Z,51.33
2023-01-12T14:26:09.431Z,51.41
2023-01-12T14:28:39.875Z,51.41
2023-01-12T14:31:31.481Z,51.27
2023-01-12T14:34:03.102Z,51.17
2023-01-12T14:36:45.276Z,51.06
2023-01-12T14:39:24.235Z,50.99
2023-01-12T14:42:13.870Z,51.03
2023-01-12T14:45:14.494Z,50.72
2023-01-12T14:47:42.321Z,50.99
2023-01-12T14:50:13.324Z,50.86
2023-01-12T14:52:44.259Z,50.82
2023-01-12T14:55:17.576Z,50.93
2023-01-12T14:58:01.453Z,50.51
2023-01-12T15:00:36.095Z,50.88
2023-01-12T15:03:17.648Z,50.89
2023-01-12T15:05:51.274Z,50.87
2023-01-12T15:08:27.852Z,50.95
2023-01-12T15:11:08.587Z,50.64
2023-01-12T15:13:38.049Z,51.01
2023-01-12T15:16:25.134Z,51.11
2023-01-12T15:19:11.862Z,51.14
2023-01-12T15:22:01.639Z,51.22
2023-01-12T15:24:50.668Z,51.04
2023-01-12T15:27:23.664Z,51.15
2023-01-12T15:29:52.574Z,51.11
2023-01-12T15:32:47.295Z,50.82
2023-01-12T15:35:23.627Z,51.00
2023-01-12T15:37:55.448Z,50.94
2023-01-12T15:40:25.294Z,50.78
2023-01-12T15:42:53.775Z,50.67
2023-01-12T15:45:37.053Z,50.63
2023-01-12T15:48:06.438Z,50.76
2023-01-12T15:50:37.605Z,50.85
2023-01-12T15:53:22.063Z,50.66
2023-01-12T15:55:50.187Z,50.79
2023-01-12T15:58:19.463Z,50.76
2023-01-12T16:00:47.284Z,50.92
2023-01-12T16:03:34.647Z,50.84
2023-01-12T16:06:02.949Z,50.49
2023-01-12T16:08:30.636Z,50.73
2023-01-12T16:11:12.019Z,51.04
2023-01-12T16:13:41.044Z,51.00
2023-01-12T16:16:17.565Z,50.88
2023-01-12T16:18:45.684Z,50.91
2023-01-12T16:21:17.423Z,50.74
2023-01-12T16:23:46.400Z,50.83
2023-01-12T16:26:15.511Z,50.78
2023-01-12T16:28:43.371Z,50.78
2023-01-12T16:31:14.093Z,50.63
2023-01-12T16:33:44.159Z,50.66
2023-01-12T16:36:15.767Z,50.50
2023-01-12T16:38:43.566Z,50.78
2023-01-12T16:41:22.314Z,50.68
2023-01-12T16:43:50.650Z,50.64
2023-01-12T16:46:18.701Z,50.58
2023-01-12T16:48:46.600Z,50.71
2023-01-12T16:51:17.678Z,50.75
2023-01-12T16:53:47.221Z,50.83
2023-01-12T16:56:16.562Z,50.87
2023-01-12T16:58:51.783Z,50.95
2023-01-12T17:01:23.469Z,51.21
2023-01-12T17:03:53.659Z,51.18
2023-01-12T17:06:21.839Z,51.13
2023-01-12T17:08:50.309Z,51.20
2023-01-12T17:11:19.787Z,51.01
2023-01-12T17:13:54.131Z,50.78
2023-01-12T17:16:24.561Z,50.84
2023-01-12T17:18:53.699Z,51.05
2023-01-12T17:21:22.395Z,50.97
2023-01-12T17:23:52.284Z,51.02
2023-01-12T17:26:20.602Z,50.81
2023-01-12T17:28:48.789Z,50.84
2023-01-12T17:31:19.070Z,50.72
2023-01-12T17:33:47.285Z,50.81
2023-01-12T17:36:18.074Z,50.59
2023-01-12T17:38:45.735Z,50.91
2023-01-12T17:41:35.452Z,50.60
2023-01-12T17:44:05.217Z,50.65
2023-01-12T17:46:33.955Z,50.74
2023-01-12T17:49:06.023Z,50.76
2023-01-12T17:51:34.889Z,50.59
2023-01-12T17:54:05.331Z,50.60
2023-01-12T17:56:35.572Z,50.61
2023-01-12T17:59:04.484Z,50.39
2023-01-12T18:01:35.169Z,50.46
2023-01-12T18:04:04.032Z,50.38
2023-01-12T18:06:34.614Z,50.71
2023-01-12T18:09:02.576Z,50.70
2023-01-12T18:11:31.936Z,50.80
2023-01-12T18:14:01.203Z,50.35
2023-01-12T18:16:29.705Z,50.25
2023-01-12T18:19:04.504Z,50.45
2023-01-12T18:21:33.420Z,50.14
2023-01-12T18:24:02.014Z,50.20
2023-01-12T18:26:35.593Z,50.29
2023-01-12T18:29:06.296Z,50.13
2023-01-12T18:31:37.369Z,50.22
2023-01-12T18:34:07.859Z,50.27
2023-01-12T18:36:40.712Z,50.04
2023-01-12T18:39:16.267Z,49.94
2023-01-12T18:42:03.491Z,49.96
2023-01-12T18:57:43.881Z,48.72
2023-01-12T19:00:16.939Z,49.31
2023-01-12T19:02:45.260Z,49.52
2023-01-12T19:05:17.553Z,49.29
2023-01-12T19:07:58.441Z,49.44
2023-01-12T19:10:29.269Z,49.48
2023-01-12T19:13:36.196Z,49.38
2023-01-12T19:16:42.715Z,49.56
2023-01-12T19:19:34.153Z,49.64
2023-01-12T19:22:22.066Z,49.30
2023-01-12T19:25:08.717Z,49.46
2023-01-12T19:27:55.086Z,49.54
2023-01-12T19:30:23.444Z,49.89
2023-01-12T19:32:52.731Z,49.99
2023-01-12T19:35:20.895Z,50.11
2023-01-12T19:37:50.124Z,49.78
2023-01-12T19:40:43.663Z,49.92
2023-01-12T19:43:14.764Z,50.08
2023-01-12T19:45:45.945Z,49.98
2023-01-12T19:48:16.358Z,49.76
2023-01-12T19:50:45.302Z,49.48
2023-01-12T19:53:18.583Z,49.41
2023-01-12T19:55:47.251Z,49.53
2023-01-12T19:58:19.211Z,49.53
2023-01-12T20:00:49.671Z,49.60
2023-01-12T20:03:22.144Z,49.63
2023-01-12T20:05:52.183Z,49.47
2023-01-12T20:08:24.938Z,49.53
2023-01-12T20:10:58.175Z,49.45
2023-01-12T20:13:27.745Z,49.51
2023-01-12T20:15:57.943Z,49.49
2023-01-12T20:18:25.921Z,49.66
2023-01-12T20:21:02.595Z,49.59
2023-01-12T20:23:30.821Z,49.52
2023-01-12T20:26:00.025Z,49.40
2023-01-12T20:28:28.793Z,49.44
2023-01-12T20:30:59.382Z,49.40
2023-01-12T20:33:28.580Z,49.72
2023-01-12T20:35:58.897Z,49.75
2023-01-12T20:38:27.612Z,49.84
2023-01-12T20:40:55.769Z,49.79
2023-01-12T20:43:24.865Z,49.71
2023-01-12T20:45:52.929Z,49.83
2023-01-12T20:48:21.341Z,49.73
2023-01-12T20:50:49.600Z,49.83
2023-01-12T20:53:18.958Z,49.82
2023-01-12T20:58:33.798Z,49.83
2023-01-12T21:01:02.606Z,49.81
2023-01-12T21:03:31.028Z,49.71
2023-01-12T21:06:01.143Z,49.69
2023-01-12T21:11:14.116Z,49.60
2023-01-12T21:13:43.133Z,49.57
2023-01-12T21:16:18.986Z,49.38
2023-01-12T21:18:56.288Z,49.54
2023-01-12T21:21:25.419Z,49.50
2023-01-12T21:23:55.733Z,49.44
2023-01-12T21:26:25.959Z,49.20
2023-01-12T21:28:54.273Z,49.14
2023-01-12T21:31:22.849Z,49.08
2023-01-12T21:33:52.968Z,48.99
2023-01-12T21:36:21.918Z,49.14
2023-01-12T21:38:51.715Z,48.91
2023-01-12T21:41:22.057Z,48.80
2023-01-12T21:43:54.134Z,48.83
2023-01-12T21:46:27.102Z,48.76
2023-01-12T21:48:55.785Z,48.65
2023-01-12T21:51:25.571Z,48.45
2023-01-12T21:53:57.724Z,48.39
2023-01-12T21:59:10.921Z,48.45
2023-01-12T22:01:39.487Z,48.61
2023-01-12T22:04:07.944Z,48.51
2023-01-12T22:06:36.812Z,48.38
2023-01-12T22:09:05.804Z,48.36
2023-01-12T22:11:34.112Z,48.19
2023-01-12T22:14:02.200Z,48.23
2023-01-12T22:16:31.262Z,48.09
2023-01-12T22:18:59.527Z,48.15
2023-01-12T22:21:27.795Z,48.25
2023-01-12T22:23:56.061Z,48.12
2023-01-12T22:26:24.751Z,48.27
2023-01-12T22:28:53.166Z,47.97
2023-01-12T22:31:24.932Z,47.87
2023-01-12T22:34:07.083Z,47.81
2023-01-12T22:36:43.161Z,47.87
2023-01-12T22:39:13.129Z,47.73
2023-01-12T22:41:41.624Z,47.69
2023-01-12T22:44:12.950Z,47.74
2023-01-12T22:46:41.278Z,47.73
2023-01-12T22:49:11.876Z,47.48
2023-01-12T22:51:40.461Z,47.78
2023-01-12T22:54:08.753Z,47.70
2023-01-12T22:56:37.588Z,47.70
2023-01-12T22:59:06.836Z,47.46
2023-01-12T23:01:35.204Z,47.51
2023-01-12T23:04:03.463Z,47.45
2023-01-12T23:06:32.408Z,47.55
2023-01-12T23:09:00.468Z,47.64
2023-01-12T23:11:28.552Z,47.52
2023-01-12T23:16:39.105Z,47.53
2023-01-12T23:19:07.147Z,47.46
2023-01-12T23:21:36.420Z,47.61
2023-01-12T23:24:04.962Z,47.63
2023-01-12T23:26:35.118Z,47.50
2023-01-12T23:29:03.565Z,47.64
2023-01-12T23:31:33.850Z,47.53
2023-01-12T23:34:02.933Z,47.53
2023-01-12T23:36:31.835Z,47.64
2023-01-12T23:39:03.973Z,47.59
2023-01-12T23:41:37.661Z,47.64
2023-01-12T23:44:09.717Z,47.91
2023-01-12T23:46:40.889Z,47.59
2023-01-12T23:49:11.048Z,47.70
2023-01-12T23:51:39.904Z,47.61
2023-01-12T23:54:08.811Z,47.59
2023-01-12T23:56:36.822Z,47.56
2023-01-12T23:59:05.158Z,47.69
